sensor_id;sensor_type;location;lat;lon;timestamp;pressure;altitude;pressure_sealevel;temperature;humidity
30967;BME280;17649;51.836;8.330;2023-02-15T00:01:05;102408.06;;;2.73;100.00
30967;BME280;17649;51.836;8.330;2023-02-15T00:04:07;102406.38;;;2.71;100.00
30967;BME280;17649;51.836;8.330;2023-02-15T00:07:07;102408.88;;;2.66;100.00
30967;BME280;17649;51.836;8.330;2023-02-15T00:10:08;102401.19;;;2.60;100.00
30967;BME280;17649;51.836;8.330;2023-02-15T00:13:08;102400.31;;;2.59;100.00
30967;BME280;17649;51.836;8.330;2023-02-15T00:16:11;102393.50;;;2.57;100.00
30967;BME280;17649;51.836;8.330;2023-02-15T00:19:15;102395.19;;;2.53;100.00
30967;BME280;17649;51.836;8.330;2023-02-15T00:22:15;102394.28;;;2.50;100.00
30967;BME280;17649;51.836;8.330;2023-02-15T00:25:16;102392.56;;;2.46;100.00
30967;BME280;17649;51.836;8.330;2023-02-15T00:28:16;102394.25;;;2.41;100.00
30967;BME280;17649;51.836;8.330;2023-02-15T00:31:17;102388.22;;;2.35;100.00
30967;BME280;17649;51.836;8.330;2023-02-15T00:34:21;102383.13;;;2.34;100.00
30967;BME280;17649;51.836;8.330;2023-02-15T00:37:21;102394.19;;;2.36;100.00
30967;BME280;17649;51.836;8.330;2023-02-15T00:40:22;102380.53;;;2.31;100.00
30967;BME280;17649;51.836;8.330;2023-02-15T00:43:22;102374.59;;;2.30;100.00
30967;BME280;17649;51.836;8.330;2023-02-15T00:46:23;102370.31;;;2.29;100.00
30967;BME280;17649;51.836;8.330;2023-02-15T00:49:23;102370.31;;;2.29;100.00
30967;BME280;17649;51.836;8.330;2023-02-15T00:52:23;102366.84;;;2.23;100.00
30967;BME280;17649;51.836;8.330;2023-02-15T00:55:24;102371.09;;;2.21;100.00
30967;BME280;17649;51.836;8.330;2023-02-15T00:58:24;102373.66;;;2.22;100.00
30967;BME280;17649;51.836;8.330;2023-02-15T01:01:25;102371.94;;;2.17;100.00
30967;BME280;17649;51.836;8.330;2023-02-15T01:04:25;102373.59;;;2.13;100.00
30967;BME280;17649;51.836;8.330;2023-02-15T01:07:26;102376.16;;;2.10;100.00
30967;BME280;17649;51.836;8.330;2023-02-15T01:10:27;102366.69;;;2.01;100.00
30967;BME280;17649;51.836;8.330;2023-02-15T01:13:27;102376.06;;;1.99;100.00
30967;BME280;17649;51.836;8.330;2023-02-15T01:16:28;102365.75;;;1.93;100.00
30967;BME280;17649;51.836;8.330;2023-02-15T01:19:28;102361.50;;;1.91;100.00
30967;BME280;17649;51.836;8.330;2023-02-15T01:22:29;102358.06;;;1.87;100.00
30967;BME280;17649;51.836;8.330;2023-02-15T01:25:29;102359.75;;;1.84;100.00
30967;BME280;17649;51.836;8.330;2023-02-15T01:28:30;102351.25;;;1.83;100.00
30967;BME280;17649;51.836;8.330;2023-02-15T01:31:31;102353.78;;;1.80;100.00
30967;BME280;17649;51.836;8.330;2023-02-15T01:34:31;102349.47;;;1.76;100.00
30967;BME280;17649;51.836;8.330;2023-02-15T01:37:33;102340.06;;;1.70;100.00
30967;BME280;17649;51.836;8.330;2023-02-15T01:40:33;102336.63;;;1.67;100.00
30967;BME280;17649;51.836;8.330;2023-02-15T01:43:48;102341.72;;;1.64;100.00
30967;BME280;17649;51.836;8.330;2023-02-15T01:46:52;102333.13;;;1.57;100.00
30967;BME280;17649;51.836;8.330;2023-02-15T01:50:02;102345.88;;;1.57;100.00
30967;BME280;17649;51.836;8.330;2023-02-15T01:56:15;102331.34;;;1.48;100.00
30967;BME280;17649;51.836;8.330;2023-02-15T01:59:20;102329.63;;;1.47;100.00
30967;BME280;17649;51.836;8.330;2023-02-15T02:02:22;102331.34;;;1.48;100.00
30967;BME280;17649;51.836;8.330;2023-02-15T02:05:24;102328.75;;;1.45;100.00
30967;BME280;17649;51.836;8.330;2023-02-15T02:08:25;102328.75;;;1.44;100.00
30967;BME280;17649;51.836;8.330;2023-02-15T02:11:25;102328.78;;;1.47;100.00
30967;BME280;17649;51.836;8.330;2023-02-15T02:14:26;102321.97;;;1.46;100.00
30967;BME280;17649;51.836;8.330;2023-02-15T02:25:00;102307.44;;;1.37;100.00
30967;BME280;17649;51.836;8.330;2023-02-15T02:32:15;102309.06;;;1.29;100.00
30967;BME280;17649;51.836;8.330;2023-02-15T02:35:29;102303.94;;;1.28;100.00
30967;BME280;17649;51.836;8.330;2023-02-15T02:42:01;102294.47;;;1.16;100.00
30967;BME280;17649;51.836;8.330;2023-02-15T02:45:07;102295.31;;;1.18;100.00
30967;BME280;17649;51.836;8.330;2023-02-15T02:48:15;102290.22;;;1.16;100.00
30967;BME280;17649;51.836;8.330;2023-02-15T02:51:17;102284.25;;;1.14;100.00
30967;BME280;17649;51.836;8.330;2023-02-15T02:54:21;102274.03;;;1.11;100.00
30967;BME280;17649;51.836;8.330;2023-02-15T02:57:24;102277.41;;;1.10;100.00
30967;BME280;17649;51.836;8.330;2023-02-15T03:00:30;102283.41;;;1.14;100.00
30967;BME280;17649;51.836;8.330;2023-02-15T03:03:37;102275.72;;;1.11;100.00
30967;BME280;17649;51.836;8.330;2023-02-15T03:06:58;102275.69;;;1.06;100.00
30967;BME280;17649;51.836;8.330;2023-02-15T03:10:02;102287.63;;;1.10;100.00
30967;BME280;17649;51.836;8.330;2023-02-15T03:13:03;102280.81;;;1.11;100.00
30967;BME280;17649;51.836;8.330;2023-02-15T03:16:09;102278.28;;;1.12;100.00
30967;BME280;17649;51.836;8.330;2023-02-15T03:19:35;102271.44;;;1.07;100.00
30967;BME280;17649;51.836;8.330;2023-02-15T03:26:08;102270.59;;;1.09;100.00
30967;BME280;17649;51.836;8.330;2023-02-15T03:29:09;102264.56;;;1.01;100.00
30967;BME280;17649;51.836;8.330;2023-02-15T03:32:11;102264.56;;;1.03;100.00
30967;BME280;17649;51.836;8.330;2023-02-15T03:35:12;102275.59;;;0.99;100.00
30967;BME280;17649;51.836;8.330;2023-02-15T03:38:17;102268.75;;;0.93;100.00
30967;BME280;17649;51.836;8.330;2023-02-15T03:41:23;102272.91;;;0.86;100.00
30967;BME280;17649;51.836;8.330;2023-02-15T03:44:30;102261.88;;;0.89;100.00
30967;BME280;17649;51.836;8.330;2023-02-15T03:47:33;102261.09;;;0.92;100.00
30967;BME280;17649;51.836;8.330;2023-02-15T03:50:37;102262.75;;;0.89;100.00
30967;BME280;17649;51.836;8.330;2023-02-15T03:53:57;102250.03;;;0.91;100.00
30967;BME280;17649;51.836;8.330;2023-02-15T03:56:58;102243.16;;;0.87;100.00
30967;BME280;17649;51.836;8.330;2023-02-15T04:00:22;102245.69;;;0.85;100.00
30967;BME280;17649;51.836;8.330;2023-02-15T04:03:53;102249.94;;;0.83;100.00
30967;BME280;17649;51.836;8.330;2023-02-15T04:06:56;102242.25;;;0.77;100.00
30967;BME280;17649;51.836;8.330;2023-02-15T04:09:56;102246.50;;;0.78;100.00
30967;BME280;17649;51.836;8.330;2023-02-15T04:13:15;102257.53;;;0.77;100.00
30967;BME280;17649;51.836;8.330;2023-02-15T04:16:16;102243.81;;;0.69;100.00
30967;BME280;17649;51.836;8.330;2023-02-15T04:19:16;102242.97;;;0.69;100.00
30967;BME280;17649;51.836;8.330;2023-02-15T04:22:35;102243.00;;;0.70;100.00
30967;BME280;17649;51.836;8.330;2023-02-15T04:25:54;102245.53;;;0.70;100.00
30967;BME280;17649;51.836;8.330;2023-02-15T04:28:54;102238.81;;;0.75;100.00
30967;BME280;17649;51.836;8.330;2023-02-15T04:31:58;102245.56;;;0.73;100.00
30967;BME280;17649;51.836;8.330;2023-02-15T04:34:58;102238.78;;;0.74;100.00
30967;BME280;17649;51.836;8.330;2023-02-15T04:37:59;102236.19;;;0.71;100.00
30967;BME280;17649;51.836;8.330;2023-02-15T04:40:59;102229.38;;;0.67;100.00
30967;BME280;17649;51.836;8.330;2023-02-15T04:44:00;102225.94;;;0.63;100.00
30967;BME280;17649;51.836;8.330;2023-02-15T04:47:01;102224.22;;;0.61;100.00
30967;BME280;17649;51.836;8.330;2023-02-15T04:50:01;102219.13;;;0.61;100.00
30967;BME280;17649;51.836;8.330;2023-02-15T04:53:01;102221.69;;;0.62;100.00
30967;BME280;17649;51.836;8.330;2023-02-15T04:56:02;102222.44;;;0.55;100.00
30967;BME280;17649;51.836;8.330;2023-02-15T04:59:02;102221.69;;;0.62;100.00
30967;BME280;17649;51.836;8.330;2023-02-15T05:02:03;102222.53;;;0.61;100.00
30967;BME280;17649;51.836;8.330;2023-02-15T05:05:04;102219.13;;;0.62;100.00
30967;BME280;17649;51.836;8.330;2023-02-15T05:08:04;102222.44;;;0.56;100.00
30967;BME280;17649;51.836;8.330;2023-02-15T05:11:04;102214.75;;;0.52;100.00
30967;BME280;17649;51.836;8.330;2023-02-15T05:14:05;102215.66;;;0.55;100.00
30967;BME280;17649;51.836;8.330;2023-02-15T05:17:05;102209.69;;;0.53;100.00
30967;BME280;17649;51.836;8.330;2023-02-15T05:20:06;102208.84;;;0.56;100.00
30967;BME280;17649;51.836;8.330;2023-02-15T05:23:07;102209.66;;;0.52;100.00
30967;BME280;17649;51.836;8.330;2023-02-15T05:26:17;102214.75;;;0.52;100.00
30967;BME280;17649;51.836;8.330;2023-02-15T05:29:36;102219.03;;;0.54;100.00
30967;BME280;17649;51.836;8.330;2023-02-15T05:32:39;102206.22;;;0.47;100.00
30967;BME280;17649;51.836;8.330;2023-02-15T05:35:40;102210.50;;;0.51;100.00
30967;BME280;17649;51.836;8.330;2023-02-15T05:38:40;102206.25;;;0.48;100.00
30967;BME280;17649;51.836;8.330;2023-02-15T05:41:41;102208.72;;;0.44;100.00
30967;BME280;17649;51.836;8.330;2023-02-15T05:44:41;102213.78;;;0.42;100.00
30967;BME280;17649;51.836;8.330;2023-02-15T05:47:42;102203.59;;;0.41;100.00
30967;BME280;17649;51.836;8.330;2023-02-15T05:50:42;102206.09;;;0.38;100.00
30967;BME280;17649;51.836;8.330;2023-02-15T05:53:43;102200.13;;;0.36;100.00
30967;BME280;17649;51.836;8.330;2023-02-15T05:56:43;102198.41;;;0.32;100.00
30967;BME280;17649;51.836;8.330;2023-02-15T05:59:43;102196.72;;;0.32;100.00
30967;BME280;17649;51.836;8.330;2023-02-15T06:02:44;102205.19;;;0.31;100.00
30967;BME280;17649;51.836;8.330;2023-02-15T06:05:44;102202.59;;;0.29;100.00
30967;BME280;17649;51.836;8.330;2023-02-15T06:08:45;102202.53;;;0.25;100.00
30967;BME280;17649;51.836;8.330;2023-02-15T06:11:45;102203.41;;;0.27;100.00
30967;BME280;17649;51.836;8.330;2023-02-15T06:14:47;102194.91;;;0.26;100.00
30967;BME280;17649;51.836;8.330;2023-02-15T06:18:07;102196.63;;;0.27;100.00
30967;BME280;17649;51.836;8.330;2023-02-15T06:21:17;102200.88;;;0.28;100.00
30967;BME280;17649;51.836;8.330;2023-02-15T06:24:38;102205.09;;;0.25;100.00
30967;BME280;17649;51.836;8.330;2023-02-15T06:27:41;102204.22;;;0.23;100.00
30967;BME280;17649;51.836;8.330;2023-02-15T06:30:41;102210.16;;;0.22;100.00
30967;BME280;17649;51.836;8.330;2023-02-15T06:33:42;102205.94;;;0.25;100.00
30967;BME280;17649;51.836;8.330;2023-02-15T06:36:42;102202.56;;;0.28;100.00
30967;BME280;17649;51.836;8.330;2023-02-15T06:39:44;102197.44;;;0.23;100.00
30967;BME280;17649;51.836;8.330;2023-02-15T06:42:44;102198.28;;;0.24;100.00
30967;BME280;17649;51.836;8.330;2023-02-15T06:45:45;102202.53;;;0.25;100.00
30967;BME280;17649;51.836;8.330;2023-02-15T06:48:45;102203.41;;;0.25;100.00
30967;BME280;17649;51.836;8.330;2023-02-15T06:51:45;102212.75;;;0.26;100.00
30967;BME280;17649;51.836;8.330;2023-02-15T06:54:46;102205.94;;;0.25;100.00
30967;BME280;17649;51.836;8.330;2023-02-15T06:57:46;102203.41;;;0.27;100.00
30967;BME280;17649;51.836;8.330;2023-02-15T07:00:46;102199.19;;;0.29;100.00
30967;BME280;17649;51.836;8.330;2023-02-15T07:03:47;102198.41;;;0.32;100.00
30967;BME280;17649;51.836;8.330;2023-02-15T07:06:47;102203.50;;;0.32;100.00
30967;BME280;17649;51.836;8.330;2023-02-15T07:09:47;102206.94;;;0.35;100.00
30967;BME280;17649;51.836;8.330;2023-02-15T07:12:48;102197.63;;;0.39;100.00
30967;BME280;17649;51.836;8.330;2023-02-15T07:15:48;102204.56;;;0.52;100.00
30967;BME280;17649;51.836;8.330;2023-02-15T07:18:49;102200.44;;;0.60;100.00
30967;BME280;17649;51.836;8.330;2023-02-15T07:21:49;102203.88;;;0.65;100.00
30967;BME280;17649;51.836;8.330;2023-02-15T07:24:50;102201.38;;;0.71;100.00
30967;BME280;17649;51.836;8.330;2023-02-15T07:27:58;102207.34;;;0.73;100.00
30967;BME280;17649;51.836;8.330;2023-02-15T07:31:03;102198.06;;;0.78;100.00
30967;BME280;17649;51.836;8.330;2023-02-15T07:34:05;102196.50;;;0.89;100.00
30967;BME280;17649;51.836;8.330;2023-02-15T07:37:06;102192.28;;;0.96;100.00
30967;BME280;17649;51.836;8.330;2023-02-15T07:40:07;102189.78;;;1.02;100.00
30967;BME280;17649;51.836;8.330;2023-02-15T07:43:07;102183.91;;;1.06;100.00
30967;BME280;17649;51.836;8.330;2023-02-15T07:46:10;102183.09;;;1.12;100.00
30967;BME280;17649;51.836;8.330;2023-02-15T07:49:19;102178.94;;;1.20;100.00
30967;BME280;17649;51.836;8.330;2023-02-15T07:52:28;102184.06;;;1.25;100.00
30967;BME280;17649;51.836;8.330;2023-02-15T07:55:42;102185.84;;;1.35;100.00
30967;BME280;17649;51.836;8.330;2023-02-15T07:58:47;102194.41;;;1.47;100.00
30967;BME280;17649;51.836;8.330;2023-02-15T08:01:58;102186.84;;;1.57;100.00
30967;BME280;17649;51.836;8.330;2023-02-15T08:04:58;102183.50;;;1.64;100.00
30967;BME280;17649;51.836;8.330;2023-02-15T08:07:58;102172.47;;;1.71;100.00
30967;BME280;17649;51.836;8.330;2023-02-15T08:14:29;102168.31;;;1.84;100.00
30967;BME280;17649;51.836;8.330;2023-02-15T08:17:29;102164.06;;;1.92;100.00
30967;BME280;17649;51.836;8.330;2023-02-15T08:20:30;102159.03;;;2.02;100.00
30967;BME280;17649;51.836;8.330;2023-02-15T08:23:30;102159.09;;;2.12;100.00
30967;BME280;17649;51.836;8.330;2023-02-15T08:26:31;102156.59;;;2.24;100.00
30967;BME280;17649;51.836;8.330;2023-02-15T08:29:32;102148.09;;;2.31;100.00
30967;BME280;17649;51.836;8.330;2023-02-15T08:32:33;102143.88;;;2.42;100.00
30967;BME280;17649;51.836;8.330;2023-02-15T08:35:33;102151.56;;;2.54;100.00
30967;BME280;17649;51.836;8.330;2023-02-15T08:38:34;102155.84;;;2.63;100.00
30967;BME280;17649;51.836;8.330;2023-02-15T08:41:35;102143.94;;;2.76;100.00
30967;BME280;17649;51.836;8.330;2023-02-15T08:44:36;102144.81;;;2.93;100.00
30967;BME280;17649;51.836;8.330;2023-02-15T08:47:36;102134.56;;;2.96;100.00
30967;BME280;17649;51.836;8.330;2023-02-15T08:50:37;102135.41;;;3.10;100.00
30967;BME280;17649;51.836;8.330;2023-02-15T08:53:42;102133.72;;;3.24;100.00
30967;BME280;17649;51.836;8.330;2023-02-15T08:56:43;102131.16;;;3.37;100.00
30967;BME280;17649;51.836;8.330;2023-02-15T08:59:44;102125.16;;;3.41;100.00
30967;BME280;17649;51.836;8.330;2023-02-15T09:02:44;102130.25;;;3.56;100.00
30967;BME280;17649;51.836;8.330;2023-02-15T09:05:45;102131.94;;;3.68;100.00
30967;BME280;17649;51.836;8.330;2023-02-15T09:08:45;102121.69;;;3.77;100.00
30967;BME280;17649;51.836;8.330;2023-02-15T09:11:48;102123.41;;;3.75;100.00
30967;BME280;17649;51.836;8.330;2023-02-15T09:14:48;102112.25;;;3.88;100.00
30967;BME280;17649;51.836;8.330;2023-02-15T09:17:49;102108.78;;;4.06;100.00
30967;BME280;17649;51.836;8.330;2023-02-15T09:20:49;102108.69;;;4.24;100.00
30967;BME280;17649;51.836;8.330;2023-02-15T09:23:51;102098.38;;;4.36;100.00
30967;BME280;17649;51.836;8.330;2023-02-15T09:26:52;102095.75;;;4.42;100.00
30967;BME280;17649;51.836;8.330;2023-02-15T09:29:52;102094.84;;;4.53;100.00
30967;BME280;17649;51.836;8.330;2023-02-15T09:32:53;102097.34;;;4.62;100.00
30967;BME280;17649;51.836;8.330;2023-02-15T09:35:53;102098.09;;;4.73;100.00
30967;BME280;17649;51.836;8.330;2023-02-15T09:45:59;102085.00;;;5.08;100.00
30967;BME280;17649;51.836;8.330;2023-02-15T09:56:30;102088.84;;;5.53;100.00
30967;BME280;17649;51.836;8.330;2023-02-15T09:59:41;102084.41;;;5.66;100.00
30967;BME280;17649;51.836;8.330;2023-02-15T10:03:07;102082.53;;;5.79;100.00
30967;BME280;17649;51.836;8.330;2023-02-15T10:13:12;102078.47;;;6.32;100.00
30967;BME280;17649;51.836;8.330;2023-02-15T10:16:29;102068.84;;;6.44;100.00
30967;BME280;17649;51.836;8.330;2023-02-15T10:23:51;102081.81;;;6.92;100.00
30967;BME280;17649;51.836;8.330;2023-02-15T10:27:12;102071.16;;;7.12;100.00
30967;BME280;17649;51.836;8.330;2023-02-15T10:30:29;102068.16;;;7.36;100.00
30967;BME280;17649;51.836;8.330;2023-02-15T10:33:42;102061.94;;;7.48;100.00
30967;BME280;17649;51.836;8.330;2023-02-15T10:37:09;102056.53;;;7.59;100.00
30967;BME280;17649;51.836;8.330;2023-02-15T10:47:36;102044.97;;;8.18;100.00
30967;BME280;17649;51.836;8.330;2023-02-15T10:51:03;102051.06;;;8.54;100.00
30967;BME280;17649;51.836;8.330;2023-02-15T10:54:18;102043.66;;;8.75;100.00
30967;BME280;17649;51.836;8.330;2023-02-15T11:01:01;102033.38;;;9.07;100.00
30967;BME280;17649;51.836;8.330;2023-02-15T11:07:30;102038.81;;;9.60;100.00
30967;BME280;17649;51.836;8.330;2023-02-15T11:10:39;102032.78;;;9.89;100.00
30967;BME280;17649;51.836;8.330;2023-02-15T11:13:46;102034.28;;;10.26;100.00
30967;BME280;17649;51.836;8.330;2023-02-15T11:16:51;102031.31;;;10.91;100.00
30967;BME280;17649;51.836;8.330;2023-02-15T11:20:04;102024.78;;;11.99;100.00
30967;BME280;17649;51.836;8.330;2023-02-15T11:23:14;102012.09;;;13.18;100.00
30967;BME280;17649;51.836;8.330;2023-02-15T11:26:27;102011.91;;;14.34;100.00
30967;BME280;17649;51.836;8.330;2023-02-15T11:29:36;102005.59;;;15.73;100.00
30967;BME280;17649;51.836;8.330;2023-02-15T11:32:43;102006.59;;;16.78;85.04
30967;BME280;17649;51.836;8.330;2023-02-15T11:35:53;101995.97;;;17.38;81.39
30967;BME280;17649;51.836;8.330;2023-02-15T11:39:02;101996.72;;;17.69;70.19
30967;BME280;17649;51.836;8.330;2023-02-15T11:42:09;101989.34;;;18.55;71.52
30967;BME280;17649;51.836;8.330;2023-02-15T11:48:29;101979.94;;;20.02;56.58
30967;BME280;17649;51.836;8.330;2023-02-15T11:51:31;101974.22;;;20.78;49.12
30967;BME280;17649;51.836;8.330;2023-02-15T11:54:34;101973.38;;;20.77;47.59
30967;BME280;17649;51.836;8.330;2023-02-15T11:57:44;101964.31;;;21.15;47.75
30967;BME280;17649;51.836;8.330;2023-02-15T12:01:20;101952.34;;;21.45;44.75
30967;BME280;17649;51.836;8.330;2023-02-15T12:04:30;101958.97;;;21.71;44.82
30967;BME280;17649;51.836;8.330;2023-02-15T12:07:36;101945.47;;;22.08;43.12
30967;BME280;17649;51.836;8.330;2023-02-15T12:10:43;101947.50;;;22.04;42.81
30967;BME280;17649;51.836;8.330;2023-02-15T12:13:59;101937.50;;;22.19;44.47
30967;BME280;17649;51.836;8.330;2023-02-15T12:17:00;101939.50;;;22.47;42.08
30967;BME280;17649;51.836;8.330;2023-02-15T12:20:20;101938.41;;;22.80;42.27
30967;BME280;17649;51.836;8.330;2023-02-15T12:23:21;101928.66;;;23.52;44.57
30967;BME280;17649;51.836;8.330;2023-02-15T12:26:31;101919.63;;;23.54;41.04
30967;BME280;17649;51.836;8.330;2023-02-15T12:29:40;101915.69;;;23.29;39.32
30967;BME280;17649;51.836;8.330;2023-02-15T12:32:57;101920.97;;;22.89;39.94
30967;BME280;17649;51.836;8.330;2023-02-15T12:36:12;101911.84;;;23.03;39.86
30967;BME280;17649;51.836;8.330;2023-02-15T12:39:19;101908.03;;;22.86;40.07
30967;BME280;17649;51.836;8.330;2023-02-15T12:42:21;101895.75;;;22.75;40.38
30967;BME280;17649;51.836;8.330;2023-02-15T12:45:42;101898.22;;;22.67;39.67
30967;BME280;17649;51.836;8.330;2023-02-15T12:48:49;101890.97;;;21.97;40.41
30967;BME280;17649;51.836;8.330;2023-02-15T12:55:26;101885.97;;;22.87;41.02
30967;BME280;17649;51.836;8.330;2023-02-15T12:58:37;101881.91;;;23.23;37.53
30967;BME280;17649;51.836;8.330;2023-02-15T13:01:38;101885.63;;;22.19;38.95
30967;BME280;17649;51.836;8.330;2023-02-15T13:04:48;101876.91;;;22.28;40.95
30967;BME280;17649;51.836;8.330;2023-02-15T13:07:53;101880.34;;;22.19;40.68
30967;BME280;17649;51.836;8.330;2023-02-15T13:14:01;101875.41;;;21.94;41.67
30967;BME280;17649;51.836;8.330;2023-02-15T13:17:04;101872.94;;;22.34;39.22
30967;BME280;17649;51.836;8.330;2023-02-15T13:20:09;101875.56;;;22.34;40.85
30967;BME280;17649;51.836;8.330;2023-02-15T13:23:27;101871.94;;;22.56;40.62
30967;BME280;17649;51.836;8.330;2023-02-15T13:26:30;101867.25;;;23.00;39.72
30967;BME280;17649;51.836;8.330;2023-02-15T13:29:34;101863.31;;;23.92;39.67
30967;BME280;17649;51.836;8.330;2023-02-15T13:32:39;101848.50;;;25.03;37.29
30967;BME280;17649;51.836;8.330;2023-02-15T13:35:46;101851.06;;;25.12;38.57
30967;BME280;17649;51.836;8.330;2023-02-15T13:42:14;101840.53;;;25.92;34.57
30967;BME280;17649;51.836;8.330;2023-02-15T13:48:51;101837.81;;;25.66;35.58
30967;BME280;17649;51.836;8.330;2023-02-15T13:52:23;101824.31;;;24.60;34.84
30967;BME280;17649;51.836;8.330;2023-02-15T13:55:29;101829.47;;;24.15;38.83
30967;BME280;17649;51.836;8.330;2023-02-15T14:15:14;101800.28;;;25.96;35.81
30967;BME280;17649;51.836;8.330;2023-02-15T14:18:27;101793.25;;;26.13;34.96
30967;BME280;17649;51.836;8.330;2023-02-15T14:21:34;101800.66;;;25.75;33.89
30967;BME280;17649;51.836;8.330;2023-02-15T14:24:40;101803.13;;;25.59;35.26
30967;BME280;17649;51.836;8.330;2023-02-15T14:27:59;101798.78;;;25.50;34.66
30967;BME280;17649;51.836;8.330;2023-02-15T14:31:07;101789.59;;;25.62;35.27
30967;BME280;17649;51.836;8.330;2023-02-15T14:34:30;101797.34;;;25.38;34.16
30967;BME280;17649;51.836;8.330;2023-02-15T14:44:29;101801.19;;;25.25;36.95
30967;BME280;17649;51.836;8.330;2023-02-15T14:47:40;101793.03;;;24.46;36.42
30967;BME280;17649;51.836;8.330;2023-02-15T14:50:45;101799.72;;;22.87;37.57
30967;BME280;17649;51.836;8.330;2023-02-15T14:53:46;101801.25;;;21.25;40.08
30967;BME280;17649;51.836;8.330;2023-02-15T15:00:36;101798.13;;;18.79;56.71
30967;BME280;17649;51.836;8.330;2023-02-15T15:03:47;101793.44;;;18.07;85.36
30967;BME280;17649;51.836;8.330;2023-02-15T15:07:23;101793.00;;;17.48;74.80
30967;BME280;17649;51.836;8.330;2023-02-15T15:10:45;101782.59;;;17.07;96.77
30967;BME280;17649;51.836;8.330;2023-02-15T15:14:54;101788.19;;;16.74;92.46
30967;BME280;17649;51.836;8.330;2023-02-15T15:20:48;101785.94;;;16.11;91.20
30967;BME280;17649;51.836;8.330;2023-02-15T15:23:49;101786.91;;;15.80;100.00
30967;BME280;17649;51.836;8.330;2023-02-15T15:40:25;101787.25;;;14.81;100.00
30967;BME280;17649;51.836;8.330;2023-02-15T15:47:37;101773.78;;;14.24;100.00
30967;BME280;17649;51.836;8.330;2023-02-15T15:50:43;101775.09;;;13.98;100.00
30967;BME280;17649;51.836;8.330;2023-02-15T15:53:46;101786.38;;;13.81;100.00
30967;BME280;17649;51.836;8.330;2023-02-15T15:57:01;101788.38;;;13.59;100.00
30967;BME280;17649;51.836;8.330;2023-02-15T16:00:03;101777.53;;;13.32;100.00
30967;BME280;17649;51.836;8.330;2023-02-15T16:03:04;101789.63;;;13.14;100.00
30967;BME280;17649;51.836;8.330;2023-02-15T16:06:05;101782.69;;;12.96;100.00
30967;BME280;17649;51.836;8.330;2023-02-15T16:09:19;101775.75;;;12.77;100.00
30967;BME280;17649;51.836;8.330;2023-02-15T16:12:20;101771.53;;;12.56;100.00
30967;BME280;17649;51.836;8.330;2023-02-15T16:15:23;101775.88;;;12.37;100.00
30967;BME280;17649;51.836;8.330;2023-02-15T16:18:26;101782.19;;;12.11;100.00
30967;BME280;17649;51.836;8.330;2023-02-15T16:21:32;101777.84;;;11.91;100.00
30967;BME280;17649;51.836;8.330;2023-02-15T16:28:31;101786.81;;;11.40;100.00
30967;BME280;17649;51.836;8.330;2023-02-15T16:32:28;101798.56;;;11.05;100.00
30967;BME280;17649;51.836;8.330;2023-02-15T16:35:40;101791.13;;;10.74;100.00
30967;BME280;17649;51.836;8.330;2023-02-15T16:39:38;101797.50;;;10.40;100.00
30967;BME280;17649;51.836;8.330;2023-02-15T16:42:46;101789.78;;;10.14;100.00
30967;BME280;17649;51.836;8.330;2023-02-15T16:46:08;101789.66;;;9.92;100.00
30967;BME280;17649;51.836;8.330;2023-02-15T16:49:28;101792.09;;;9.72;100.00
30967;BME280;17649;51.836;8.330;2023-02-15T16:52:29;101796.06;;;9.55;100.00
30967;BME280;17649;51.836;8.330;2023-02-15T16:55:40;101794.84;;;9.39;100.00
30967;BME280;17649;51.836;8.330;2023-02-15T16:58:44;101794.50;;;9.23;100.00
30967;BME280;17649;51.836;8.330;2023-02-15T17:01:46;101799.19;;;9.11;100.00
30967;BME280;17649;51.836;8.330;2023-02-15T17:11:40;101783.34;;;9.21;100.00
30967;BME280;17649;51.836;8.330;2023-02-15T17:14:41;101799.56;;;9.26;100.00
30967;BME280;17649;51.836;8.330;2023-02-15T17:17:41;101805.72;;;9.21;100.00
30967;BME280;17649;51.836;8.330;2023-02-15T17:20:43;101810.16;;;9.17;100.00
30967;BME280;17649;51.836;8.330;2023-02-15T17:23:47;101813.59;;;9.18;100.00
30967;BME280;17649;51.836;8.330;2023-02-15T17:26:54;101808.63;;;9.12;100.00
30967;BME280;17649;51.836;8.330;2023-02-15T17:30:15;101811.31;;;9.07;100.00
30967;BME280;17649;51.836;8.330;2023-02-15T17:33:28;101805.44;;;9.02;100.00
30967;BME280;17649;51.836;8.330;2023-02-15T17:36:58;101814.19;;;8.98;100.00
30967;BME280;17649;51.836;8.330;2023-02-15T17:40:00;101822.19;;;8.89;100.00
30967;BME280;17649;51.836;8.330;2023-02-15T17:43:10;101820.78;;;8.77;100.00
30967;BME280;17649;51.836;8.330;2023-02-15T17:46:17;101817.31;;;8.80;100.00
30967;BME280;17649;51.836;8.330;2023-02-15T17:49:24;101819.88;;;8.80;100.00
30967;BME280;17649;51.836;8.330;2023-02-15T17:52:28;101821.72;;;8.75;100.00
30967;BME280;17649;51.836;8.330;2023-02-15T17:55:34;101824.19;;;8.79;100.00
30967;BME280;17649;51.836;8.330;2023-02-15T17:58:39;101819.94;;;8.77;100.00
30967;BME280;17649;51.836;8.330;2023-02-15T18:01:46;101818.44;;;8.70;100.00
30967;BME280;17649;51.836;8.330;2023-02-15T18:05:12;101823.06;;;8.58;100.00
30967;BME280;17649;51.836;8.330;2023-02-15T18:08:36;101827.69;;;8.46;100.00
30967;BME280;17649;51.836;8.330;2023-02-15T18:11:56;101821.06;;;8.37;100.00
30967;BME280;17649;51.836;8.330;2023-02-15T18:14:58;101819.50;;;8.30;100.00
30967;BME280;17649;51.836;8.330;2023-02-15T18:18:07;101819.72;;;8.22;100.00
30967;BME280;17649;51.836;8.330;2023-02-15T18:21:35;101817.28;;;8.16;100.00
30967;BME280;17649;51.836;8.330;2023-02-15T18:25:00;101814.81;;;8.12;100.00
30967;BME280;17649;51.836;8.330;2023-02-15T18:28:03;101815.78;;;8.07;100.00
30967;BME280;17649;51.836;8.330;2023-02-15T18:31:04;101817.63;;;8.04;100.00
30967;BME280;17649;51.836;8.330;2023-02-15T18:34:05;101813.31;;;8.03;100.00